THY5RE LTFM-LTBJ
Flight info
| Callsign | THY5RE |
|---|---|
| Flight time | 0h 49m |
| Altitude | 31000 |
| Route | IVGUS1E/36 IVGUS UM19 OVZOK |
| Aircraft | B738/M-SDE2E3FGHIRWXY/LB1 |
Departure
| Time | 2026-05-04 12:24 |
|---|---|
| Airport | İstanbul Airport (LTFM) |
Arrival
| Time | 2026-05-04 13:13 |
|---|---|
| Airport | Adnan Menderes International Airport (LTBJ) |
| Time | Latitude | Longitude | Altitude | Speed | Heading |
|---|---|---|---|---|---|
| 2026-05-04 11:55 | 41.25823 | 28.74995 | 333 ft | 0 kts | 251° |
| 2026-05-04 12:14 | 41.25827 | 28.75008 | 333 ft | 2 kts | 246° |
| 2026-05-04 12:15 | 41.25832 | 28.75026 | 333 ft | 2 kts | 252° |
| 2026-05-04 12:15 | 41.25837 | 28.75044 | 333 ft | 2 kts | 250° |
| 2026-05-04 12:15 | 41.25842 | 28.75063 | 333 ft | 2 kts | 251° |
| 2026-05-04 12:15 | 41.25846 | 28.75082 | 333 ft | 2 kts | 265° |
| 2026-05-04 12:16 | 41.25845 | 28.75102 | 333 ft | 2 kts | 282° |
| 2026-05-04 12:16 | 41.25840 | 28.75120 | 333 ft | 2 kts | 300° |
| 2026-05-04 12:16 | 41.25832 | 28.75136 | 333 ft | 2 kts | 317° |
| 2026-05-04 12:16 | 41.25819 | 28.75147 | 333 ft | 1 kts | 335° |
| 2026-05-04 12:17 | 41.25813 | 28.75150 | 333 ft | 1 kts | 343° |
| 2026-05-04 12:17 | 41.25810 | 28.75151 | 333 ft | 0 kts | 341° |
| 2026-05-04 12:19 | 41.25811 | 28.75151 | 333 ft | 0 kts | 341° |
| 2026-05-04 12:19 | 41.25816 | 28.75151 | 333 ft | 1 kts | 12° |
| 2026-05-04 12:19 | 41.25827 | 28.75167 | 333 ft | 2 kts | 69° |
| 2026-05-04 12:19 | 41.25833 | 28.75204 | 333 ft | 4 kts | 82° |
| 2026-05-04 12:20 | 41.25837 | 28.75263 | 333 ft | 9 kts | 88° |
| 2026-05-04 12:20 | 41.25853 | 28.75373 | 333 ft | 15 kts | 41° |
| 2026-05-04 12:20 | 41.25952 | 28.75391 | 333 ft | 14 kts | 360° |
| 2026-05-04 12:20 | 41.26038 | 28.75389 | 333 ft | 10 kts | 359° |
| 2026-05-04 12:21 | 41.26100 | 28.75387 | 333 ft | 7 kts | 359° |
| 2026-05-04 12:21 | 41.26155 | 28.75386 | 333 ft | 8 kts | 359° |
| 2026-05-04 12:21 | 41.26214 | 28.75393 | 333 ft | 8 kts | 25° |
| 2026-05-04 12:21 | 41.26233 | 28.75463 | 333 ft | 8 kts | 88° |
| 2026-05-04 12:22 | 41.26234 | 28.75543 | 333 ft | 8 kts | 89° |
| 2026-05-04 12:22 | 41.26236 | 28.75627 | 333 ft | 9 kts | 81° |
| 2026-05-04 12:22 | 41.26278 | 28.75667 | 333 ft | 6 kts | 6° |
| 2026-05-04 12:22 | 41.26285 | 28.75668 | 333 ft | 0 kts | 0° |
| 2026-05-04 12:23 | 41.26331 | 28.75667 | 333 ft | 30 kts | 359° |
| 2026-05-04 12:23 | 41.26795 | 28.75658 | 333 ft | 100 kts | 359° |
| 2026-05-04 12:24 | 41.27683 | 28.75639 | 427 ft | 146 kts | 357° |
| 2026-05-04 12:24 | 41.28663 | 28.75637 | 1299 ft | 136 kts | 358° |
| 2026-05-04 12:24 | 41.29572 | 28.75644 | 1957 ft | 140 kts | 8° |
| 2026-05-04 12:24 | 41.30432 | 28.76360 | 2452 ft | 159 kts | 46° |
| 2026-05-04 12:25 | 41.31166 | 28.77472 | 2933 ft | 166 kts | 30° |
| 2026-05-04 12:25 | 41.32262 | 28.78117 | 3403 ft | 180 kts | 19° |
| 2026-05-04 12:25 | 41.33435 | 28.78832 | 3951 ft | 194 kts | 24° |
| 2026-05-04 12:25 | 41.34661 | 28.79726 | 4511 ft | 207 kts | 26° |
| 2026-05-04 12:26 | 41.35960 | 28.80695 | 5064 ft | 221 kts | 26° |
| 2026-05-04 12:26 | 41.37264 | 28.81825 | 5727 ft | 233 kts | 37° |
| 2026-05-04 12:26 | 41.38247 | 28.83688 | 6269 ft | 260 kts | 65° |
| 2026-05-04 12:26 | 41.38507 | 28.86113 | 7047 ft | 274 kts | 82° |
| 2026-05-04 12:27 | 41.38263 | 28.88647 | 7877 ft | 286 kts | 101° |
| 2026-05-04 12:27 | 41.37322 | 28.91028 | 8695 ft | 300 kts | 121° |
| 2026-05-04 12:27 | 41.35821 | 28.93071 | 9440 ft | 313 kts | 136° |
| 2026-05-04 12:27 | 41.33922 | 28.94518 | 10120 ft | 326 kts | 158° |
| 2026-05-04 12:28 | 41.31632 | 28.95042 | 10573 ft | 345 kts | 175° |
| 2026-05-04 12:28 | 41.29165 | 28.95100 | 11006 ft | 361 kts | 179° |
| 2026-05-04 12:28 | 41.26584 | 28.94922 | 11417 ft | 377 kts | 188° |
| 2026-05-04 12:28 | 41.24019 | 28.93895 | 11823 ft | 392 kts | 206° |
| 2026-05-04 12:29 | 41.21567 | 28.92164 | 12238 ft | 404 kts | 213° |
| 2026-05-04 12:29 | 41.19156 | 28.90163 | 12899 ft | 411 kts | 216° |
| 2026-05-04 12:29 | 41.16771 | 28.88082 | 13598 ft | 416 kts | 216° |
| 2026-05-04 12:29 | 41.14319 | 28.85929 | 14311 ft | 422 kts | 216° |
| 2026-05-04 12:30 | 41.11888 | 28.83819 | 15161 ft | 424 kts | 215° |
| 2026-05-04 12:30 | 41.09382 | 28.81672 | 15995 ft | 426 kts | 214° |
| 2026-05-04 12:30 | 41.06883 | 28.79553 | 16786 ft | 428 kts | 213° |
| 2026-05-04 12:30 | 41.04378 | 28.77446 | 17530 ft | 431 kts | 213° |
| 2026-05-04 12:31 | 41.01858 | 28.75336 | 18281 ft | 434 kts | 213° |
| 2026-05-04 12:31 | 40.99293 | 28.73195 | 18914 ft | 439 kts | 213° |
| 2026-05-04 12:31 | 40.96712 | 28.71044 | 19603 ft | 443 kts | 213° |
| 2026-05-04 12:31 | 40.94056 | 28.68832 | 20249 ft | 448 kts | 213° |
| 2026-05-04 12:32 | 40.91439 | 28.66655 | 20832 ft | 453 kts | 212° |
| 2026-05-04 12:32 | 40.86065 | 28.62190 | 22014 ft | 461 kts | 213° |
| 2026-05-04 12:32 | 40.83341 | 28.59929 | 22568 ft | 465 kts | 212° |
| 2026-05-04 12:33 | 40.80566 | 28.57629 | 23184 ft | 468 kts | 212° |
| 2026-05-04 12:33 | 40.77819 | 28.55352 | 23720 ft | 472 kts | 212° |
| 2026-05-04 12:33 | 40.75034 | 28.53047 | 23982 ft | 477 kts | 212° |
| 2026-05-04 12:33 | 40.72238 | 28.50735 | 24011 ft | 474 kts | 212° |
| 2026-05-04 12:34 | 40.69436 | 28.48420 | 24019 ft | 473 kts | 212° |
| 2026-05-04 12:34 | 40.66618 | 28.46093 | 24021 ft | 473 kts | 212° |
| 2026-05-04 12:34 | 40.63853 | 28.43813 | 24023 ft | 473 kts | 212° |
| 2026-05-04 12:34 | 40.61064 | 28.41515 | 24022 ft | 473 kts | 213° |
| 2026-05-04 12:35 | 40.58254 | 28.39201 | 24024 ft | 473 kts | 212° |
| 2026-05-04 12:35 | 40.55476 | 28.36916 | 24026 ft | 474 kts | 212° |
| 2026-05-04 12:35 | 40.52672 | 28.34611 | 24038 ft | 476 kts | 212° |
| 2026-05-04 12:35 | 40.49867 | 28.32306 | 24553 ft | 480 kts | 212° |
| 2026-05-04 12:36 | 40.47015 | 28.29968 | 25268 ft | 479 kts | 212° |
| 2026-05-04 12:36 | 40.45115 | 28.28411 | 25574 ft | 483 kts | 211° |
| 2026-05-04 12:36 | 40.41293 | 28.25283 | 26225 ft | 488 kts | 211° |
| 2026-05-04 12:36 | 40.38440 | 28.22950 | 26792 ft | 490 kts | 211° |
| 2026-05-04 12:37 | 40.35513 | 28.20560 | 27278 ft | 493 kts | 211° |
| 2026-05-04 12:37 | 40.32597 | 28.18180 | 27875 ft | 494 kts | 211° |
| 2026-05-04 12:37 | 40.29668 | 28.15792 | 28619 ft | 491 kts | 211° |
| 2026-05-04 12:37 | 40.26783 | 28.13446 | 29466 ft | 484 kts | 211° |
| 2026-05-04 12:38 | 40.23967 | 28.11157 | 30305 ft | 477 kts | 211° |
| 2026-05-04 12:38 | 40.21148 | 28.08866 | 30893 ft | 476 kts | 211° |
| 2026-05-04 12:38 | 40.18330 | 28.06580 | 31022 ft | 481 kts | 211° |
| 2026-05-04 12:39 | 40.12609 | 28.01950 | 31033 ft | 480 kts | 211° |
| 2026-05-04 12:39 | 40.06946 | 27.97375 | 31042 ft | 478 kts | 211° |
| 2026-05-04 12:40 | 40.01314 | 27.92829 | 31048 ft | 477 kts | 211° |
| 2026-05-04 12:40 | 39.95664 | 27.88276 | 31049 ft | 478 kts | 211° |
| 2026-05-04 12:41 | 39.90004 | 27.83722 | 31051 ft | 478 kts | 211° |
| 2026-05-04 12:41 | 39.84359 | 27.79191 | 31050 ft | 479 kts | 211° |
| 2026-05-04 12:42 | 39.78659 | 27.74625 | 31048 ft | 480 kts | 211° |
| 2026-05-04 12:42 | 39.72977 | 27.70085 | 31052 ft | 479 kts | 211° |
| 2026-05-04 12:43 | 39.67319 | 27.65571 | 31050 ft | 478 kts | 211° |
| 2026-05-04 12:43 | 39.61629 | 27.61044 | 31048 ft | 479 kts | 211° |
| 2026-05-04 12:44 | 39.55980 | 27.56559 | 31047 ft | 480 kts | 211° |
| 2026-05-04 12:44 | 39.50297 | 27.52048 | 31043 ft | 478 kts | 211° |
| 2026-05-04 12:45 | 39.44618 | 27.47548 | 31041 ft | 479 kts | 211° |
| 2026-05-04 12:45 | 39.38966 | 27.43203 | 30542 ft | 470 kts | 208° |
| 2026-05-04 12:46 | 39.32979 | 27.39927 | 30678 ft | 472 kts | 197° |
| 2026-05-04 12:46 | 39.26602 | 27.37479 | 30635 ft | 476 kts | 194° |
| 2026-05-04 12:46 | 39.23441 | 27.36354 | 30227 ft | 471 kts | 194° |
| 2026-05-04 12:47 | 39.20319 | 27.35253 | 29702 ft | 466 kts | 194° |
| 2026-05-04 12:47 | 39.17172 | 27.34137 | 29138 ft | 463 kts | 193° |
| 2026-05-04 12:47 | 39.14085 | 27.33034 | 28367 ft | 464 kts | 194° |
| 2026-05-04 12:47 | 39.11005 | 27.31930 | 27860 ft | 458 kts | 194° |
| 2026-05-04 12:48 | 39.07964 | 27.30826 | 27505 ft | 450 kts | 195° |
| 2026-05-04 12:48 | 39.04986 | 27.29733 | 26985 ft | 446 kts | 195° |
| 2026-05-04 12:48 | 39.01987 | 27.28625 | 26355 ft | 445 kts | 196° |
| 2026-05-04 12:48 | 38.99035 | 27.27568 | 25861 ft | 440 kts | 194° |
| 2026-05-04 12:49 | 38.96020 | 27.26747 | 25268 ft | 438 kts | 190° |
| 2026-05-04 12:49 | 38.93027 | 27.26135 | 24776 ft | 433 kts | 188° |
| 2026-05-04 12:49 | 38.90084 | 27.25614 | 24278 ft | 429 kts | 188° |
| 2026-05-04 12:49 | 38.87093 | 27.25099 | 23724 ft | 426 kts | 188° |
| 2026-05-04 12:50 | 38.84164 | 27.24585 | 23151 ft | 424 kts | 189° |
| 2026-05-04 12:50 | 38.81246 | 27.24053 | 22521 ft | 422 kts | 189° |
| 2026-05-04 12:50 | 38.78383 | 27.23515 | 22136 ft | 416 kts | 189° |
| 2026-05-04 12:50 | 38.75515 | 27.22962 | 21616 ft | 412 kts | 190° |
| 2026-05-04 12:51 | 38.72708 | 27.22411 | 21001 ft | 409 kts | 190° |
| 2026-05-04 12:51 | 38.69925 | 27.21858 | 20410 ft | 407 kts | 190° |
| 2026-05-04 12:51 | 38.67106 | 27.21294 | 19903 ft | 403 kts | 191° |
| 2026-05-04 12:51 | 38.64350 | 27.20741 | 19363 ft | 401 kts | 191° |
| 2026-05-04 12:52 | 38.61628 | 27.20194 | 18869 ft | 397 kts | 191° |
| 2026-05-04 12:52 | 38.58883 | 27.19646 | 18350 ft | 394 kts | 190° |
| 2026-05-04 12:52 | 38.56161 | 27.19246 | 17773 ft | 394 kts | 185° |
| 2026-05-04 12:52 | 38.53434 | 27.19304 | 17298 ft | 391 kts | 174° |
| 2026-05-04 12:53 | 38.50737 | 27.19851 | 16852 ft | 386 kts | 168° |
| 2026-05-04 12:53 | 38.48161 | 27.20608 | 16606 ft | 372 kts | 165° |
| 2026-05-04 12:53 | 38.45722 | 27.21411 | 16368 ft | 356 kts | 164° |
| 2026-05-04 12:53 | 38.43365 | 27.22201 | 16147 ft | 342 kts | 164° |
| 2026-05-04 12:54 | 38.41117 | 27.22934 | 15985 ft | 326 kts | 165° |
| 2026-05-04 12:54 | 38.38972 | 27.23611 | 15858 ft | 307 kts | 165° |
| 2026-05-04 12:54 | 38.36929 | 27.24240 | 15639 ft | 291 kts | 165° |
| 2026-05-04 12:54 | 38.35008 | 27.24823 | 15402 ft | 278 kts | 165° |
| 2026-05-04 12:55 | 38.33158 | 27.25380 | 15216 ft | 264 kts | 165° |
| 2026-05-04 12:55 | 38.31416 | 27.25903 | 15030 ft | 252 kts | 165° |
| 2026-05-04 12:55 | 38.29754 | 27.26402 | 14875 ft | 240 kts | 164° |
| 2026-05-04 12:55 | 38.28141 | 27.26885 | 14609 ft | 235 kts | 164° |
| 2026-05-04 12:56 | 38.26531 | 27.27367 | 14215 ft | 236 kts | 164° |
| 2026-05-04 12:56 | 38.24943 | 27.27841 | 13868 ft | 234 kts | 163° |
| 2026-05-04 12:56 | 38.23373 | 27.28312 | 13524 ft | 233 kts | 163° |
| 2026-05-04 12:56 | 38.21816 | 27.28781 | 13230 ft | 226 kts | 164° |
| 2026-05-04 12:57 | 38.20310 | 27.29231 | 12992 ft | 216 kts | 164° |
| 2026-05-04 12:57 | 38.18875 | 27.29659 | 12793 ft | 206 kts | 163° |
| 2026-05-04 12:57 | 38.17500 | 27.30071 | 12482 ft | 204 kts | 163° |
| 2026-05-04 12:57 | 38.16134 | 27.30481 | 12172 ft | 201 kts | 163° |
| 2026-05-04 12:58 | 38.14761 | 27.30892 | 11836 ft | 200 kts | 163° |
| 2026-05-04 12:58 | 38.13412 | 27.31293 | 11515 ft | 199 kts | 164° |
| 2026-05-04 12:58 | 38.12062 | 27.31695 | 11216 ft | 197 kts | 164° |
| 2026-05-04 12:58 | 38.10741 | 27.32083 | 10888 ft | 196 kts | 166° |
| 2026-05-04 12:59 | 38.09412 | 27.32495 | 10572 ft | 194 kts | 166° |
| 2026-05-04 12:59 | 38.08083 | 27.32763 | 10236 ft | 195 kts | 171° |
| 2026-05-04 12:59 | 38.06750 | 27.33006 | 9959 ft | 192 kts | 170° |
| 2026-05-04 12:59 | 38.05413 | 27.33258 | 9643 ft | 193 kts | 170° |
| 2026-05-04 13:00 | 38.04100 | 27.33504 | 9365 ft | 191 kts | 170° |
| 2026-05-04 13:00 | 38.02790 | 27.33745 | 9078 ft | 189 kts | 170° |
| 2026-05-04 13:00 | 38.01490 | 27.33981 | 8779 ft | 189 kts | 170° |
| 2026-05-04 13:00 | 38.00145 | 27.34222 | 8322 ft | 199 kts | 170° |
| 2026-05-04 13:01 | 37.98741 | 27.34471 | 7856 ft | 210 kts | 170° |
| 2026-05-04 13:01 | 37.97303 | 27.34726 | 7683 ft | 203 kts | 170° |
| 2026-05-04 13:01 | 37.95910 | 27.34978 | 7421 ft | 203 kts | 170° |
| 2026-05-04 13:01 | 37.94484 | 27.35232 | 6999 ft | 212 kts | 171° |
| 2026-05-04 13:02 | 37.92963 | 27.35122 | 6195 ft | 238 kts | 198° |
| 2026-05-04 13:02 | 37.91540 | 27.33954 | 5296 ft | 252 kts | 234° |
| 2026-05-04 13:02 | 37.90873 | 27.32052 | 5136 ft | 225 kts | 268° |
| 2026-05-04 13:02 | 37.91101 | 27.30232 | 5001 ft | 198 kts | 302° |
| 2026-05-04 13:03 | 37.92009 | 27.29062 | 4722 ft | 187 kts | 332° |
| 2026-05-04 13:03 | 37.93176 | 27.28266 | 4130 ft | 198 kts | 332° |
| 2026-05-04 13:03 | 37.94162 | 27.27032 | 3831 ft | 196 kts | 311° |
| 2026-05-04 13:03 | 37.95078 | 27.25934 | 3757 ft | 173 kts | 335° |
| 2026-05-04 13:04 | 37.96170 | 27.25463 | 3650 ft | 156 kts | 345° |
| 2026-05-04 13:04 | 37.97147 | 27.25108 | 3634 ft | 137 kts | 346° |
| 2026-05-04 13:04 | 37.98048 | 27.24810 | 3630 ft | 136 kts | 347° |
| 2026-05-04 13:04 | 37.98995 | 27.24527 | 3633 ft | 143 kts | 348° |
| 2026-05-04 13:05 | 37.99976 | 27.24243 | 3630 ft | 141 kts | 348° |
| 2026-05-04 13:05 | 38.00934 | 27.23958 | 3630 ft | 142 kts | 348° |
| 2026-05-04 13:05 | 38.01906 | 27.23669 | 3630 ft | 142 kts | 348° |
| 2026-05-04 13:05 | 38.02863 | 27.23383 | 3631 ft | 142 kts | 347° |
| 2026-05-04 13:06 | 38.03824 | 27.23092 | 3630 ft | 141 kts | 347° |
| 2026-05-04 13:06 | 38.04791 | 27.22795 | 3630 ft | 142 kts | 347° |
| 2026-05-04 13:06 | 38.05747 | 27.22513 | 3629 ft | 142 kts | 348° |
| 2026-05-04 13:06 | 38.06720 | 27.22226 | 3621 ft | 143 kts | 348° |
| 2026-05-04 13:07 | 38.07682 | 27.21938 | 3529 ft | 143 kts | 347° |
| 2026-05-04 13:07 | 38.08652 | 27.21647 | 3424 ft | 141 kts | 347° |
| 2026-05-04 13:07 | 38.09616 | 27.21359 | 3318 ft | 141 kts | 347° |
| 2026-05-04 13:07 | 38.10574 | 27.21072 | 3211 ft | 141 kts | 347° |
| 2026-05-04 13:08 | 38.11529 | 27.20780 | 3109 ft | 139 kts | 347° |
| 2026-05-04 13:08 | 38.12442 | 27.20506 | 2990 ft | 131 kts | 347° |
| 2026-05-04 13:08 | 38.13334 | 27.20240 | 2886 ft | 130 kts | 347° |
| 2026-05-04 13:08 | 38.14218 | 27.19975 | 2751 ft | 131 kts | 347° |
| 2026-05-04 13:09 | 38.15099 | 27.19708 | 2619 ft | 130 kts | 348° |
| 2026-05-04 13:09 | 38.15978 | 27.19448 | 2489 ft | 130 kts | 347° |
| 2026-05-04 13:09 | 38.16865 | 27.19178 | 2362 ft | 131 kts | 347° |
| 2026-05-04 13:09 | 38.17739 | 27.18914 | 2246 ft | 129 kts | 345° |
| 2026-05-04 13:10 | 38.18636 | 27.18651 | 2129 ft | 130 kts | 346° |
| 2026-05-04 13:10 | 38.19520 | 27.18392 | 2009 ft | 131 kts | 345° |
| 2026-05-04 13:10 | 38.20403 | 27.18130 | 1875 ft | 132 kts | 345° |
| 2026-05-04 13:10 | 38.21300 | 27.17866 | 1670 ft | 130 kts | 348° |
| 2026-05-04 13:11 | 38.22170 | 27.17600 | 1499 ft | 130 kts | 345° |
| 2026-05-04 13:11 | 38.23063 | 27.17338 | 1322 ft | 131 kts | 347° |
| 2026-05-04 13:11 | 38.23950 | 27.17056 | 1146 ft | 131 kts | 344° |
| 2026-05-04 13:11 | 38.24844 | 27.16775 | 987 ft | 131 kts | 345° |
| 2026-05-04 13:12 | 38.25749 | 27.16540 | 807 ft | 135 kts | 343° |
| 2026-05-04 13:12 | 38.26644 | 27.16262 | 612 ft | 130 kts | 344° |
| 2026-05-04 13:12 | 38.27531 | 27.15990 | 463 ft | 132 kts | 343° |
| 2026-05-04 13:12 | 38.28436 | 27.15725 | 400 ft | 132 kts | 345° |
| 2026-05-04 13:13 | 38.29326 | 27.15449 | 406 ft | 117 kts | 348° |
| 2026-05-04 13:13 | 38.29844 | 27.15298 | 412 ft | 37 kts | 345° |
| 2026-05-04 13:13 | 38.29947 | 27.15264 | 414 ft | 6 kts | 342° |
| 2026-05-04 13:13 | 38.29958 | 27.15254 | 414 ft | 3 kts | 313° |
| 2026-05-04 13:14 | 38.29982 | 27.15185 | 415 ft | 13 kts | 257° |
| 2026-05-04 13:14 | 38.29961 | 27.15072 | 414 ft | 14 kts | 256° |
| 2026-05-04 13:14 | 38.29932 | 27.14978 | 415 ft | 10 kts | 219° |
| 2026-05-04 13:14 | 38.29848 | 27.14978 | 413 ft | 15 kts | 166° |
| 2026-05-04 13:15 | 38.29729 | 27.15013 | 408 ft | 17 kts | 167° |
| 2026-05-04 13:15 | 38.29615 | 27.15047 | 404 ft | 15 kts | 166° |
| 2026-05-04 13:15 | 38.29523 | 27.15075 | 402 ft | 10 kts | 167° |
| 2026-05-04 13:15 | 38.29454 | 27.15095 | 402 ft | 10 kts | 166° |
| 2026-05-04 13:16 | 38.29371 | 27.15120 | 402 ft | 13 kts | 166° |
| 2026-05-04 13:16 | 38.29291 | 27.15145 | 403 ft | 10 kts | 166° |
| 2026-05-04 13:16 | 38.29232 | 27.15159 | 404 ft | 7 kts | 185° |
| 2026-05-04 13:16 | 38.29207 | 27.15124 | 405 ft | 4 kts | 258° |
| 2026-05-04 13:17 | 38.29200 | 27.15083 | 405 ft | 0 kts | 257° |
| 2026-05-04 13:17 | 38.29200 | 27.15081 | 405 ft | 0 kts | 257° |
| 2026-05-04 13:17 | 38.29200 | 27.15080 | 405 ft | 0 kts | 257° |
| 2026-05-04 13:17 | 38.29199 | 27.15078 | 405 ft | 0 kts | 257° |